createdAt,value
2019-02-12T00:00:12.488Z,4.47
2019-02-12T00:02:40.925Z,4.20
2019-02-12T00:05:09.454Z,4.30
2019-02-12T00:07:37.889Z,4.50
2019-02-12T00:10:07.807Z,4.53
2019-02-12T00:12:36.234Z,4.70
2019-02-12T00:15:06.093Z,3.90
2019-02-12T00:17:34.529Z,5.07
2019-02-12T00:20:03.870Z,4.80
2019-02-12T00:22:32.656Z,4.73
2019-02-12T00:25:01.087Z,4.70
2019-02-12T00:27:29.822Z,4.87
2019-02-12T00:29:58.287Z,4.67
2019-02-12T00:32:26.733Z,4.83
2019-02-12T00:34:55.181Z,4.83
2019-02-12T00:37:23.631Z,5.87
2019-02-12T00:39:52.064Z,5.07
2019-02-12T00:42:20.577Z,5.00
2019-02-12T00:44:49.020Z,4.70
2019-02-12T00:47:17.445Z,4.30
2019-02-12T00:49:45.888Z,5.03
2019-02-12T00:52:14.340Z,5.00
2019-02-12T00:54:43.092Z,4.73
2019-02-12T00:57:11.517Z,4.67
2019-02-12T00:59:39.981Z,4.83
2019-02-12T01:02:08.380Z,4.43
2019-02-12T01:04:36.819Z,4.83
2019-02-12T01:07:05.227Z,5.30
2019-02-12T01:09:33.681Z,4.93
2019-02-12T01:12:02.116Z,4.83
2019-02-12T01:14:31.328Z,4.27
2019-02-12T01:16:59.765Z,4.80
2019-02-12T01:19:28.600Z,4.70
2019-02-12T01:21:57.021Z,5.20
2019-02-12T01:24:25.481Z,5.47
2019-02-12T01:26:53.909Z,5.00
2019-02-12T01:29:22.370Z,4.70
2019-02-12T01:31:50.818Z,4.80
2019-02-12T01:34:19.261Z,4.63
2019-02-12T01:36:47.696Z,4.65
2019-02-12T01:39:16.155Z,5.30
2019-02-12T01:41:44.597Z,5.27
2019-02-12T01:44:18.743Z,5.40
2019-02-12T01:46:47.182Z,5.03
2019-02-12T01:49:15.634Z,5.13
2019-02-12T01:51:44.085Z,4.70
2019-02-12T01:54:12.536Z,4.53
2019-02-12T01:56:40.995Z,5.33
2019-02-12T01:59:09.421Z,5.10
2019-02-12T02:01:37.873Z,5.53
2019-02-12T02:04:06.647Z,5.33
2019-02-12T02:06:35.081Z,5.00
2019-02-12T02:09:05.569Z,5.20
2019-02-12T02:11:34.362Z,5.50
2019-02-12T02:14:02.796Z,5.17
2019-02-12T02:16:31.646Z,5.70
2019-02-12T02:19:00.085Z,5.90
2019-02-12T02:21:28.987Z,5.60
2019-02-12T02:23:57.780Z,5.87
2019-02-12T02:26:26.209Z,5.53
2019-02-12T02:28:54.646Z,5.17
2019-02-12T02:31:23.125Z,6.03
2019-02-12T02:33:51.893Z,5.63
2019-02-12T02:36:20.335Z,5.73
2019-02-12T02:38:49.062Z,5.30
2019-02-12T02:41:17.491Z,5.50
2019-02-12T02:43:45.942Z,5.40
2019-02-12T02:46:14.365Z,5.67
2019-02-12T02:48:42.822Z,4.97
2019-02-12T02:51:11.290Z,6.27
2019-02-12T02:53:39.725Z,5.70
2019-02-12T02:56:08.167Z,6.20
2019-02-12T02:58:36.662Z,5.80
2019-02-12T03:01:05.115Z,4.97
2019-02-12T03:03:33.558Z,5.67
2019-02-12T03:06:02.009Z,5.30
2019-02-12T03:08:30.818Z,5.67
2019-02-12T03:10:59.279Z,5.10
2019-02-12T03:13:27.693Z,5.33
2019-02-12T03:15:56.141Z,5.60
2019-02-12T03:18:24.943Z,5.73
2019-02-12T03:20:53.418Z,5.53
2019-02-12T03:23:21.846Z,5.47
2019-02-12T03:25:50.687Z,5.67
2019-02-12T03:28:19.127Z,5.00
2019-02-12T03:30:47.593Z,5.83
2019-02-12T03:33:16.088Z,5.57
2019-02-12T03:35:44.557Z,5.83
2019-02-12T03:38:13.005Z,6.67
2019-02-12T03:40:41.498Z,6.13
2019-02-12T03:43:09.996Z,5.57
2019-02-12T03:45:38.459Z,6.77
2019-02-12T03:48:06.918Z,6.60
2019-02-12T03:50:35.378Z,6.87
2019-02-12T03:53:03.801Z,6.73
2019-02-12T03:55:32.250Z,6.13
2019-02-12T03:58:00.695Z,5.87
2019-02-12T04:00:29.132Z,6.33
2019-02-12T04:03:07.197Z,6.97
2019-02-12T04:05:37.777Z,6.27
2019-02-12T04:08:06.348Z,6.27
2019-02-12T04:10:34.782Z,6.37
2019-02-12T04:13:03.222Z,6.70
2019-02-12T04:15:31.976Z,6.67
2019-02-12T04:18:00.430Z,6.77
2019-02-12T04:20:28.866Z,6.30
2019-02-12T04:22:57.334Z,6.10
2019-02-12T04:25:25.775Z,6.43
2019-02-12T04:27:55.530Z,6.30
2019-02-12T04:30:24.226Z,6.67
2019-02-12T04:32:52.686Z,7.17
2019-02-12T04:35:21.134Z,7.00
2019-02-12T04:37:49.581Z,7.17
2019-02-12T04:40:18.040Z,7.10
2019-02-12T04:42:46.580Z,7.30
2019-02-12T04:45:15.029Z,7.17
2019-02-12T04:47:43.745Z,8.70
2019-02-12T04:50:15.942Z,7.27
2019-02-12T04:52:44.397Z,7.13
2019-02-12T04:55:13.002Z,7.00
2019-02-12T04:57:41.455Z,7.60
2019-02-12T05:00:13.220Z,8.03
2019-02-12T05:02:41.682Z,9.27
2019-02-12T05:05:11.069Z,8.37
2019-02-12T05:07:39.605Z,8.13
2019-02-12T05:10:10.763Z,8.37
2019-02-12T05:12:39.583Z,7.67
2019-02-12T05:15:09.967Z,8.20
2019-02-12T05:17:38.803Z,8.20
2019-02-12T05:20:10.341Z,9.33
2019-02-12T05:22:43.517Z,8.60
2019-02-12T05:25:10.231Z,8.33
2019-02-12T05:27:38.668Z,8.77
2019-02-12T05:30:16.287Z,9.60
2019-02-12T05:32:44.754Z,8.80
2019-02-12T05:35:13.509Z,8.13
2019-02-12T05:37:42.294Z,8.77
2019-02-12T05:40:11.927Z,8.97
2019-02-12T05:42:40.468Z,7.70
2019-02-12T05:45:12.026Z,8.13
2019-02-12T05:47:40.482Z,7.97
2019-02-12T05:50:18.664Z,9.30
2019-02-12T05:52:53.859Z,8.17
2019-02-12T05:55:17.772Z,8.93
2019-02-12T05:57:46.377Z,9.13
2019-02-12T06:00:19.454Z,8.50
2019-02-12T06:02:47.923Z,9.47
2019-02-12T06:05:27.207Z,8.97
2019-02-12T06:07:55.731Z,9.63
2019-02-12T06:10:24.186Z,9.03
2019-02-12T06:12:52.752Z,9.70
2019-02-12T06:15:21.183Z,9.47
2019-02-12T06:17:49.646Z,9.03
2019-02-12T06:20:18.106Z,9.53
2019-02-12T06:22:46.571Z,10.17
2019-02-12T06:25:15.041Z,9.43
2019-02-12T06:27:43.534Z,9.40
2019-02-12T06:30:12.323Z,9.67
2019-02-12T06:32:41.110Z,8.90
2019-02-12T06:35:10.050Z,8.83
2019-02-12T06:37:38.798Z,9.17
2019-02-12T06:40:10.190Z,8.40
2019-02-12T06:42:38.645Z,8.37
2019-02-12T06:45:10.346Z,8.10
2019-02-12T06:47:38.777Z,8.57
2019-02-12T06:50:13.301Z,8.77
2019-02-12T06:52:42.458Z,8.17
2019-02-12T06:55:11.954Z,8.17
2019-02-12T06:57:40.418Z,8.97
2019-02-12T07:00:13.667Z,8.60
2019-02-12T07:03:10.380Z,8.47
2019-02-12T07:05:41.529Z,8.07
2019-02-12T07:08:42.047Z,9.03
2019-02-12T07:11:33.045Z,8.37
2019-02-12T07:14:15.875Z,8.53
2019-02-12T07:17:12.807Z,8.33
2019-02-12T07:19:56.789Z,8.77
2019-02-12T07:23:00.059Z,8.70
2019-02-12T07:25:46.696Z,8.87
2019-02-12T07:28:27.530Z,9.40
2019-02-12T07:31:22.682Z,8.10
2019-02-12T07:33:54.224Z,9.30
2019-02-12T07:36:40.795Z,8.77
2019-02-12T07:39:33.177Z,8.50
2019-02-12T07:42:22.553Z,8.27
2019-02-12T07:45:00.107Z,7.30
2019-02-12T07:47:34.517Z,7.63
2019-02-12T07:50:20.937Z,7.07
2019-02-12T07:53:06.952Z,7.50
2019-02-12T07:55:41.281Z,7.37
2019-02-12T07:58:29.426Z,7.53
2019-02-12T08:01:13.218Z,6.87
2019-02-12T08:03:53.774Z,7.20
2019-02-12T08:06:43.081Z,5.87
2019-02-12T08:09:35.775Z,6.60
2019-02-12T08:12:12.989Z,6.33
2019-02-12T08:14:52.656Z,6.53
2019-02-12T08:17:57.354Z,6.10
2019-02-12T08:20:31.793Z,6.27
2019-02-12T08:23:12.019Z,5.70
2019-02-12T08:25:43.533Z,6.63
2019-02-12T08:28:18.182Z,6.07
2019-02-12T08:31:10.310Z,6.57
2019-02-12T08:33:53.855Z,6.93
2019-02-12T08:36:25.378Z,7.07
2019-02-12T08:39:08.707Z,6.27
2019-02-12T08:41:59.630Z,6.33
2019-02-12T08:44:37.178Z,5.83
2019-02-12T08:47:28.550Z,6.77
2019-02-12T08:50:24.050Z,6.60
2019-02-12T08:53:07.485Z,5.50
2019-02-12T08:55:38.978Z,5.80
2019-02-12T08:58:16.227Z,5.90
2019-02-12T09:00:56.590Z,5.80
2019-02-12T09:03:57.322Z,5.20
2019-02-12T09:06:43.664Z,4.93
2019-02-12T09:09:24.129Z,4.93
2019-02-12T09:12:12.042Z,4.47
2019-02-12T09:14:58.239Z,4.23
2019-02-12T09:17:44.582Z,3.87
2019-02-12T09:20:24.977Z,3.93
2019-02-12T09:23:11.457Z,4.37
2019-02-12T09:25:43.328Z,4.33
2019-02-12T09:28:18.257Z,4.53
2019-02-12T09:31:04.864Z,4.87
2019-02-12T09:33:39.057Z,3.60
2019-02-12T09:36:31.927Z,3.97
2019-02-12T09:39:05.938Z,3.43
2019-02-12T09:41:46.205Z,3.50
2019-02-12T09:44:24.097Z,3.23
2019-02-12T09:47:10.988Z,3.80
2019-02-12T09:50:18.877Z,4.37
2019-02-12T09:53:11.558Z,3.73
2019-02-12T09:56:02.958Z,3.70
2019-02-12T09:59:05.026Z,3.87
2019-02-12T10:01:57.775Z,3.10
2019-02-12T10:04:32.309Z,3.90
2019-02-12T10:07:15.929Z,3.47
2019-02-12T10:09:47.433Z,3.57
2019-02-12T10:12:33.806Z,4.00
2019-02-12T10:15:20.144Z,2.97
2019-02-12T10:18:15.175Z,4.13
2019-02-12T10:20:58.929Z,3.13
2019-02-12T10:23:50.015Z,3.20
2019-02-12T10:26:36.666Z,3.33
2019-02-12T10:29:25.110Z,3.70
2019-02-12T10:31:52.466Z,2.80
2019-02-12T10:34:20.973Z,2.87
2019-02-12T10:36:49.413Z,3.27
2019-02-12T10:39:18.326Z,2.97
2019-02-12T10:41:46.756Z,3.37
2019-02-12T10:44:15.566Z,3.10
2019-02-12T10:46:44.330Z,3.33
2019-02-12T10:49:13.119Z,2.60
2019-02-12T10:51:41.549Z,2.70
2019-02-12T10:54:11.490Z,2.77
2019-02-12T10:56:40.162Z,3.10
2019-02-12T10:59:08.618Z,3.23
2019-02-12T11:01:37.054Z,3.20
2019-02-12T11:04:05.481Z,2.20
2019-02-12T11:06:34.230Z,3.00
2019-02-12T11:09:02.746Z,2.77
2019-02-12T11:11:31.437Z,2.97
2019-02-12T11:13:59.898Z,2.83
2019-02-12T11:16:28.328Z,2.83
2019-02-12T11:18:56.794Z,3.27
2019-02-12T11:21:25.225Z,2.80
2019-02-12T11:23:53.698Z,2.87
2019-02-12T11:26:22.138Z,2.77
2019-02-12T11:28:50.955Z,2.93
2019-02-12T11:31:19.406Z,3.63
2019-02-12T11:33:48.218Z,3.00
2019-02-12T11:36:16.652Z,3.40
2019-02-12T11:38:45.094Z,3.30
2019-02-12T11:41:13.518Z,3.23
2019-02-12T11:43:42.350Z,3.10
2019-02-12T11:46:10.781Z,2.30
2019-02-12T11:48:39.514Z,2.50
2019-02-12T11:51:08.883Z,2.67
2019-02-12T11:53:37.321Z,2.57
2019-02-12T11:56:06.065Z,1.90
2019-02-12T11:58:34.533Z,2.20
2019-02-12T12:01:04.359Z,2.80
2019-02-12T12:03:32.826Z,3.00
2019-02-12T12:06:01.631Z,2.90
2019-02-12T12:08:30.515Z,3.43
2019-02-12T12:11:00.243Z,3.20
2019-02-12T12:13:29.007Z,2.30
2019-02-12T12:15:57.793Z,2.30
2019-02-12T12:18:26.586Z,2.77
2019-02-12T12:20:55.051Z,3.60
2019-02-12T12:23:23.477Z,2.10
2019-02-12T12:25:51.929Z,3.13
2019-02-12T12:28:20.374Z,3.07
2019-02-12T12:30:48.809Z,3.67
2019-02-12T12:33:17.229Z,2.70
2019-02-12T12:35:45.685Z,2.83
2019-02-12T12:38:14.122Z,2.10
2019-02-12T12:40:42.587Z,2.20
2019-02-12T12:43:11.380Z,2.07
2019-02-12T12:45:39.834Z,2.27
2019-02-12T12:48:08.276Z,1.60
2019-02-12T12:50:36.725Z,1.83
2019-02-12T12:53:05.209Z,1.30
2019-02-12T12:55:33.999Z,1.47
2019-02-12T12:58:02.798Z,2.10
2019-02-12T13:00:31.932Z,2.60
2019-02-12T13:03:00.394Z,2.33
2019-02-12T13:05:28.866Z,2.10
2019-02-12T13:07:57.301Z,2.60
2019-02-12T13:10:25.716Z,2.83
2019-02-12T13:12:54.151Z,2.33
2019-02-12T13:15:22.937Z,2.50
2019-02-12T13:17:51.373Z,1.97
2019-02-12T13:20:20.598Z,2.50
2019-02-12T13:22:49.028Z,2.60
2019-02-12T13:25:17.487Z,2.30
2019-02-12T13:27:45.944Z,2.47
2019-02-12T13:30:18.882Z,2.37
2019-02-12T13:32:47.322Z,2.40
2019-02-12T13:35:16.329Z,2.07
2019-02-12T13:37:45.301Z,2.20
2019-02-12T13:40:14.313Z,2.30
2019-02-12T13:42:42.827Z,2.00
2019-02-12T13:45:13.973Z,2.47
2019-02-12T13:47:42.414Z,2.50
2019-02-12T13:50:12.329Z,1.93
2019-02-12T13:52:40.758Z,2.23
2019-02-12T13:55:16.897Z,1.73
2019-02-12T13:57:41.436Z,2.17
2019-02-12T14:00:15.898Z,1.90
2019-02-12T14:02:44.333Z,1.97
2019-02-12T14:05:21.522Z,1.80
2019-02-12T14:07:49.956Z,1.50
2019-02-12T14:10:18.399Z,1.70
2019-02-12T14:12:47.184Z,1.73
2019-02-12T14:15:15.597Z,1.57
2019-02-12T14:17:44.053Z,2.20
2019-02-12T14:20:17.086Z,2.13
2019-02-12T14:22:45.903Z,2.57
2019-02-12T14:25:16.435Z,1.97
2019-02-12T14:27:44.898Z,2.03
2019-02-12T14:30:18.722Z,1.90
2019-02-12T14:32:47.189Z,1.90
2019-02-12T14:35:15.884Z,1.90
2019-02-12T14:37:44.335Z,2.20
2019-02-12T14:40:14.770Z,1.60
2019-02-12T14:42:43.214Z,2.07
2019-02-12T14:45:14.298Z,1.70
2019-02-12T14:47:42.762Z,1.90
2019-02-12T14:50:13.605Z,2.10
2019-02-12T14:52:42.532Z,1.70
2019-02-12T14:55:11.126Z,1.80
2019-02-12T14:57:39.571Z,1.60
2019-02-12T15:00:11.129Z,1.73
2019-02-12T15:02:39.890Z,1.93
2019-02-12T15:05:08.590Z,1.73
2019-02-12T15:07:40.074Z,1.80
2019-02-12T15:10:13.934Z,1.77
2019-02-12T15:12:42.365Z,1.63
2019-02-12T15:15:11.557Z,1.70
2019-02-12T15:17:40.018Z,2.30
2019-02-12T15:20:12.656Z,1.60
2019-02-12T15:22:41.195Z,1.67
2019-02-12T15:25:10.901Z,1.80
2019-02-12T15:27:39.655Z,1.80
2019-02-12T15:30:16.419Z,1.70
2019-02-12T15:32:45.320Z,1.40
2019-02-12T15:35:14.314Z,1.90
2019-02-12T15:37:42.802Z,1.80
2019-02-12T15:40:14.366Z,1.70
2019-02-12T15:42:43.142Z,1.87
2019-02-12T15:45:14.477Z,1.70
2019-02-12T15:47:42.917Z,2.03
2019-02-12T15:50:11.820Z,1.97
2019-02-12T15:52:40.342Z,1.80
2019-02-12T15:55:11.304Z,1.60
2019-02-12T15:57:40.503Z,1.83
2019-02-12T16:00:20.867Z,1.77
2019-02-12T16:02:49.496Z,1.97
2019-02-12T16:05:18.069Z,2.00
2019-02-12T16:07:47.372Z,2.30
2019-02-12T16:10:19.643Z,2.10
2019-02-12T16:12:49.419Z,2.13
2019-02-12T16:15:21.864Z,2.30
2019-02-12T16:17:49.988Z,2.33
2019-02-12T16:20:18.499Z,2.10
2019-02-12T16:22:47.286Z,2.00
2019-02-12T16:25:16.246Z,2.27
2019-02-12T16:27:44.692Z,2.00
2019-02-12T16:30:21.811Z,2.10
2019-02-12T16:32:50.618Z,1.97
2019-02-12T16:35:19.277Z,2.63
2019-02-12T16:37:47.712Z,2.20
2019-02-12T16:40:19.166Z,1.90
2019-02-12T16:42:47.978Z,1.97
2019-02-12T16:45:36.026Z,2.20
2019-02-12T16:48:04.502Z,2.30
2019-02-12T16:50:33.211Z,2.50
2019-02-12T16:53:02.008Z,2.57
2019-02-12T16:55:30.455Z,2.70
2019-02-12T16:57:59.270Z,2.47
2019-02-12T17:00:27.709Z,2.27
2019-02-12T17:02:56.414Z,2.77
2019-02-12T17:05:24.878Z,2.60
2019-02-12T17:07:53.380Z,2.97
2019-02-12T17:10:21.823Z,2.57
2019-02-12T17:12:50.310Z,2.50
2019-02-12T17:15:19.026Z,2.50
2019-02-12T17:17:47.474Z,3.40
2019-02-12T17:20:18.750Z,3.37
2019-02-12T17:22:47.173Z,4.60
2019-02-12T17:25:15.910Z,4.30
2019-02-12T17:27:44.698Z,4.37
2019-02-12T17:30:18.001Z,4.03
2019-02-12T17:32:46.463Z,3.70
2019-02-12T17:35:14.906Z,3.90
2019-02-12T17:37:43.334Z,3.60
2019-02-12T17:40:16.158Z,3.80
2019-02-12T17:42:44.581Z,3.37
2019-02-12T17:45:15.417Z,3.40
2019-02-12T17:47:43.870Z,4.03
2019-02-12T17:50:14.501Z,3.60
2019-02-12T17:52:43.074Z,3.50
2019-02-12T17:55:12.271Z,3.30
2019-02-12T17:57:40.717Z,3.57
2019-02-12T18:00:21.162Z,3.70
2019-02-12T18:02:49.577Z,4.07
2019-02-12T18:05:18.018Z,3.60
2019-02-12T18:07:46.786Z,4.73
2019-02-12T18:10:15.228Z,4.60
2019-02-12T18:12:43.654Z,5.23
2019-02-12T18:15:13.872Z,4.60
2019-02-12T18:17:42.292Z,5.47
2019-02-12T18:20:26.086Z,5.57
2019-02-12T18:22:48.941Z,5.40
2019-02-12T18:25:17.389Z,5.93
2019-02-12T18:27:46.106Z,5.13
2019-02-12T18:30:17.077Z,5.00
2019-02-12T18:32:45.526Z,4.57
2019-02-12T18:35:15.606Z,4.90
2019-02-12T18:37:44.072Z,4.73
2019-02-12T18:40:16.979Z,7.40
2019-02-12T18:42:45.487Z,12.23
2019-02-12T18:45:16.822Z,10.87
2019-02-12T18:47:45.301Z,9.07
2019-02-12T18:50:14.410Z,7.67
2019-02-12T18:52:42.840Z,7.17
2019-02-12T18:55:14.342Z,17.07
2019-02-12T18:57:42.758Z,9.97
2019-02-12T19:00:17.232Z,8.23
2019-02-12T19:02:45.673Z,8.73
2019-02-12T19:05:14.381Z,9.53
2019-02-12T19:07:43.039Z,9.50
2019-02-12T19:10:16.993Z,9.07
2019-02-12T19:12:45.497Z,9.10
2019-02-12T19:15:16.452Z,8.57
2019-02-12T19:17:47.824Z,7.90
2019-02-12T19:20:16.265Z,7.30
2019-02-12T19:22:45.004Z,6.27
2019-02-12T19:25:13.452Z,7.40
2019-02-12T19:27:42.203Z,7.50
2019-02-12T19:30:16.080Z,6.50
2019-02-12T19:32:44.345Z,6.70
2019-02-12T19:35:12.781Z,6.87
2019-02-12T19:37:41.229Z,7.23
2019-02-12T19:40:12.149Z,8.13
2019-02-12T19:42:40.585Z,9.43
2019-02-12T19:45:14.514Z,8.70
2019-02-12T19:47:43.035Z,9.63
2019-02-12T19:50:12.216Z,11.00
2019-02-12T19:52:40.654Z,6.63
2019-02-12T19:55:10.041Z,6.80
2019-02-12T19:57:38.507Z,5.50
2019-02-12T20:00:17.406Z,8.03
2019-02-12T20:02:45.863Z,8.73
2019-02-12T20:05:14.667Z,8.20
2019-02-12T20:07:43.124Z,7.03
2019-02-12T20:10:13.883Z,6.73
2019-02-12T20:12:42.323Z,7.47
2019-02-12T20:15:20.996Z,6.67
2019-02-12T20:17:49.797Z,6.30
2019-02-12T20:20:18.270Z,6.90
2019-02-12T20:22:46.701Z,7.87
2019-02-12T20:25:15.500Z,6.87
2019-02-12T20:27:43.942Z,7.33
2019-02-12T20:30:17.164Z,6.80
2019-02-12T20:32:47.595Z,6.70
2019-02-12T20:35:21.205Z,7.27
2019-02-12T20:37:50.707Z,6.63
2019-02-12T20:40:19.218Z,7.10
2019-02-12T20:42:47.975Z,7.40
2019-02-12T20:45:17.592Z,7.23
2019-02-12T20:47:46.358Z,8.03
2019-02-12T20:50:16.770Z,8.17
2019-02-12T20:52:45.465Z,8.00
2019-02-12T20:55:23.245Z,6.77
2019-02-12T20:57:52.061Z,6.10
2019-02-12T21:00:25.451Z,6.90
2019-02-12T21:02:53.883Z,6.47
2019-02-12T21:05:22.324Z,7.13
2019-02-12T21:07:51.090Z,7.23
2019-02-12T21:10:22.236Z,6.37
2019-02-12T21:12:50.676Z,6.90
2019-02-12T21:15:22.212Z,6.87
2019-02-12T21:17:50.657Z,6.53
2019-02-12T21:20:19.109Z,6.83
2019-02-12T21:22:53.705Z,7.47
2019-02-12T21:25:22.176Z,6.07
2019-02-12T21:27:50.925Z,6.53
2019-02-12T21:30:22.669Z,6.57
2019-02-12T21:32:53.034Z,6.00
2019-02-12T21:35:21.803Z,7.07
2019-02-12T21:37:50.879Z,6.13
2019-02-12T21:40:24.977Z,6.33
2019-02-12T21:42:53.464Z,6.60
2019-02-12T21:45:21.913Z,5.73
2019-02-12T21:47:50.397Z,6.37
2019-02-12T21:50:18.897Z,6.47
2019-02-12T21:52:47.382Z,6.27
2019-02-12T21:55:21.125Z,6.23
2019-02-12T21:57:49.811Z,6.07
2019-02-12T22:00:22.812Z,5.70
2019-02-12T22:02:51.275Z,6.00
2019-02-12T22:05:19.696Z,5.83
2019-02-12T22:07:48.397Z,5.27
2019-02-12T22:10:25.078Z,5.30
2019-02-12T22:12:53.524Z,5.63
2019-02-12T22:15:22.290Z,5.50
2019-02-12T22:17:50.786Z,5.73
2019-02-12T22:20:20.560Z,5.47
2019-02-12T22:22:49.010Z,5.57
2019-02-12T22:25:19.530Z,5.63
2019-02-12T22:27:47.980Z,6.20
2019-02-12T22:30:24.168Z,5.23
2019-02-12T22:32:52.971Z,5.83
2019-02-12T22:35:21.427Z,5.57
2019-02-12T22:37:49.893Z,5.90
2019-02-12T22:40:19.066Z,6.00
2019-02-12T22:42:47.810Z,6.10
2019-02-12T22:45:24.798Z,5.63
2019-02-12T22:47:53.246Z,6.20
2019-02-12T22:50:21.693Z,6.10
2019-02-12T22:52:50.245Z,5.00
2019-02-12T22:55:18.719Z,5.73
2019-02-12T22:57:49.297Z,5.70
2019-02-12T23:00:40.241Z,5.33
2019-02-12T23:03:09.164Z,5.40
2019-02-12T23:05:38.034Z,5.50
2019-02-12T23:08:06.486Z,5.77
2019-02-12T23:10:34.932Z,5.20
2019-02-12T23:13:03.401Z,4.93
2019-02-12T23:15:32.178Z,5.63
2019-02-12T23:18:01.399Z,6.63
2019-02-12T23:20:29.848Z,6.43
2019-02-12T23:22:58.298Z,5.70
2019-02-12T23:25:27.065Z,6.00
2019-02-12T23:27:57.769Z,5.70
2019-02-12T23:30:25.769Z,5.30
2019-02-12T23:33:01.385Z,5.70
2019-02-12T23:35:29.831Z,5.53
2019-02-12T23:37:58.583Z,5.87
2019-02-12T23:40:27.022Z,4.90
2019-02-12T23:42:55.504Z,5.30
2019-02-12T23:45:23.929Z,5.33
2019-02-12T23:47:52.380Z,4.90
2019-02-12T23:50:21.183Z,4.93
2019-02-12T23:52:49.971Z,5.20
2019-02-12T23:55:18.444Z,5.33
2019-02-12T23:57:47.249Z,5.37
